Time;durP1;ratioP1;P1;durP2;ratioP2;P2;SDS_P1;SDS_P2;PMS_P1;PMS_P2;Temp;Humidity;BMP_temperature;BMP_pressure;BME280_temperature;BME280_humidity;BME280_pressure;Samples;Min_cycle;Max_cycle;Signal;HPM_P1;HPM_P2
2022/08/23 00:00:31;;;;;;;;;;;26.30;54.40;;;;;;5116360;28;19915;-75
2022/08/23 00:02:56;;;;;;;;;;;26.30;54.40;;;;;;5115862;28;19907;-74
2022/08/23 00:05:22;;;;;;;;;;;26.30;54.50;;;;;;5115567;28;20269;-73
2022/08/23 00:07:47;;;;;;;;;;;26.30;54.50;;;;;;5115652;28;20269;-74
2022/08/23 00:10:14;;;;;;;;;;;26.20;54.40;;;;;;5116155;28;20365;-74
2022/08/23 00:12:40;;;;;;;;;;;26.30;55.20;;;;;;5116500;28;19911;-74
2022/08/23 00:15:07;;;;;;;;;;;26.20;54.50;;;;;;5116441;28;20434;-75
2022/08/23 00:17:32;;;;;;;;;;;26.20;54.60;;;;;;5116116;28;19974;-74
2022/08/23 00:19:58;;;;;;;;;;;26.30;54.70;;;;;;5116616;28;20365;-74
2022/08/23 00:22:23;;;;;;;;;;;26.20;54.60;;;;;;5115356;28;20311;-74
2022/08/23 00:24:49;;;;;;;;;;;26.20;54.60;;;;;;5116014;28;20002;-74
2022/08/23 00:27:16;;;;;;;;;;;26.20;54.60;;;;;;5116621;28;19943;-73
2022/08/23 00:29:41;;;;;;;;;;;26.30;54.70;;;;;;5116236;28;19908;-74
2022/08/23 00:32:08;;;;;;;;;;;26.20;54.60;;;;;;5116104;28;20380;-74
2022/08/23 00:34:34;;;;;;;;;;;26.20;54.60;;;;;;5115993;28;19915;-74
2022/08/23 00:37:00;;;;;;;;;;;26.20;54.60;;;;;;5114976;28;19919;-74
2022/08/23 00:39:26;;;;;;;;;;;26.20;54.60;;;;;;5114749;28;20265;-75
2022/08/23 00:41:55;;;;;;;;;;;26.20;54.50;;;;;;5114864;28;20016;-75
2022/08/23 00:50:02;;;;;;;;;;;26.10;54.60;;;;;;5115165;28;20027;-74
2022/08/23 00:52:33;;;;;;;;;;;26.10;54.70;;;;;;5114507;28;20414;-74
2022/08/23 00:54:59;;;;;;;;;;;26.10;54.70;;;;;;5115620;28;20093;-74
2022/08/23 00:57:26;;;;;;;;;;;26.10;54.70;;;;;;5114192;28;19907;-73
2022/08/23 00:59:51;;;;;;;;;;;26.10;54.80;;;;;;5097092;28;19923;-73
2022/08/23 01:02:17;;;;;;;;;;;26.10;54.80;;;;;;5114829;28;20274;-74
2022/08/23 01:04:48;;;;;;;;;;;26.10;54.80;;;;;;5114518;28;20289;-75
2022/08/23 01:07:31;;;;;;;;;;;26.10;54.80;;;;;;5114591;28;19911;-74
2022/08/23 01:10:00;;;;;;;;;;;26.10;54.80;;;;;;5114767;28;20472;-74
2022/08/23 01:12:29;;;;;;;;;;;26.10;54.80;;;;;;5113632;28;19912;-75
2022/08/23 01:15:05;;;;;;;;;;;26.20;54.90;;;;;;5113898;28;19912;-75
2022/08/23 01:17:37;;;;;;;;;;;26.10;54.70;;;;;;5113890;28;19920;-74
2022/08/23 01:20:07;;;;;;;;;;;26.10;54.70;;;;;;5113868;28;19920;-74
2022/08/23 01:22:51;;;;;;;;;;;26.10;54.70;;;;;;5115285;28;20270;-73
2022/08/23 01:25:20;;;;;;;;;;;26.10;54.80;;;;;;5115047;28;19915;-74
2022/08/23 01:27:46;;;;;;;;;;;26.10;54.90;;;;;;5114960;28;19915;-75
2022/08/23 01:30:13;;;;;;;;;;;26.10;55.00;;;;;;5114117;28;19908;-74
2022/08/23 01:32:45;;;;;;;;;;;26.10;55.00;;;;;;5112763;28;20016;-74
2022/08/23 01:35:11;;;;;;;;;;;26.10;55.10;;;;;;5112741;28;19912;-75
2022/08/23 01:37:36;;;;;;;;;;;26.10;55.10;;;;;;5114071;28;20274;-74
2022/08/23 01:40:03;;;;;;;;;;;26.10;55.20;;;;;;5114823;28;19911;-75
2022/08/23 01:42:29;;;;;;;;;;;26.10;55.30;;;;;;5114651;28;19908;-74
2022/08/23 01:44:55;;;;;;;;;;;26.10;55.30;;;;;;5113572;28;19947;-73
2022/08/23 01:47:21;;;;;;;;;;;26.10;55.50;;;;;;5114447;28;19954;-75
2022/08/23 01:49:46;;;;;;;;;;;26.10;55.50;;;;;;5114301;28;19907;-75
2022/08/23 01:52:14;;;;;;;;;;;26.10;55.50;;;;;;5113624;28;19912;-74
2022/08/23 01:54:40;;;;;;;;;;;26.10;55.50;;;;;;5113894;28;19919;-73
2022/08/23 01:57:05;;;;;;;;;;;26.10;55.50;;;;;;5113691;28;19907;-74
2022/08/23 01:59:33;;;;;;;;;;;26.10;55.50;;;;;;5114301;28;19912;-74
2022/08/23 02:01:58;;;;;;;;;;;26.10;55.40;;;;;;5113556;28;19954;-75
2022/08/23 02:04:24;;;;;;;;;;;26.10;55.50;;;;;;5114460;28;20300;-75
2022/08/23 02:06:50;;;;;;;;;;;26.10;55.30;;;;;;5114027;28;20250;-74
2022/08/23 02:09:15;;;;;;;;;;;26.10;55.10;;;;;;5114394;28;19919;-75
2022/08/23 02:11:41;;;;;;;;;;;26.10;55.10;;;;;;5114561;28;20307;-75
2022/08/23 02:14:09;;;;;;;;;;;26.10;55.00;;;;;;5114648;28;19907;-75
2022/08/23 02:16:36;;;;;;;;;;;26.00;54.90;;;;;;5114666;28;19920;-75
2022/08/23 02:19:03;;;;;;;;;;;26.00;54.90;;;;;;5114682;28;20002;-74
2022/08/23 02:21:30;;;;;;;;;;;26.00;54.80;;;;;;5114615;28;19919;-74
2022/08/23 02:24:02;;;;;;;;;;;26.00;54.80;;;;;;5114254;28;20275;-74
2022/08/23 02:26:27;;;;;;;;;;;26.00;54.80;;;;;;5114558;28;19908;-74
2022/08/23 02:28:53;;;;;;;;;;;26.00;54.80;;;;;;5114615;28;19911;-74
2022/08/23 02:31:19;;;;;;;;;;;26.10;54.90;;;;;;5114576;28;19908;-74
2022/08/23 02:33:44;;;;;;;;;;;26.00;54.80;;;;;;5113251;28;19908;-75
2022/08/23 02:36:11;;;;;;;;;;;26.10;54.80;;;;;;5114506;28;20281;-75
2022/08/23 02:38:36;;;;;;;;;;;26.10;54.70;;;;;;5113009;28;20316;-75
2022/08/23 02:41:02;;;;;;;;;;;26.10;54.60;;;;;;5114199;28;19912;-73
2022/08/23 02:43:27;;;;;;;;;;;26.00;54.40;;;;;;5114679;28;19959;-75
2022/08/23 02:45:53;;;;;;;;;;;26.10;54.40;;;;;;5112519;28;19935;-75
2022/08/23 02:48:18;;;;;;;;;;;26.00;54.20;;;;;;5113943;28;19995;-75
2022/08/23 02:50:45;;;;;;;;;;;26.00;54.30;;;;;;5113993;28;19916;-75
2022/08/23 02:53:11;;;;;;;;;;;26.00;54.30;;;;;;5113100;28;20255;-74
2022/08/23 02:55:36;;;;;;;;;;;26.00;54.30;;;;;;5113974;28;19953;-74
2022/08/23 02:58:04;;;;;;;;;;;26.00;54.40;;;;;;5114168;28;20050;-75
2022/08/23 03:00:29;;;;;;;;;;;26.00;54.40;;;;;;5114214;28;20259;-74
2022/08/23 03:02:55;;;;;;;;;;;26.00;54.40;;;;;;5114216;28;19953;-75
2022/08/23 03:05:21;;;;;;;;;;;26.00;54.50;;;;;;5114089;28;19950;-74
2022/08/23 03:07:46;;;;;;;;;;;26.00;54.60;;;;;;5113785;28;19950;-74
2022/08/23 03:10:12;;;;;;;;;;;26.00;54.40;;;;;;5114129;28;19908;-75
2022/08/23 03:12:37;;;;;;;;;;;26.00;54.50;;;;;;5114699;28;19994;-75
2022/08/23 03:15:04;;;;;;;;;;;26.00;54.50;;;;;;5117537;28;19958;-76
2022/08/23 03:17:29;;;;;;;;;;;26.00;54.50;;;;;;5117249;28;19934;-74
2022/08/23 03:19:55;;;;;;;;;;;26.00;54.60;;;;;;5117306;28;19931;-75
2022/08/23 03:22:22;;;;;;;;;;;26.00;54.60;;;;;;5116439;28;20278;-75
2022/08/23 03:24:47;;;;;;;;;;;26.00;54.50;;;;;;5117521;28;19908;-75
2022/08/23 03:27:13;;;;;;;;;;;26.00;54.50;;;;;;5117340;28;19918;-75
2022/08/23 03:29:39;;;;;;;;;;;26.10;54.50;;;;;;5117475;28;19953;-75
2022/08/23 03:32:04;;;;;;;;;;;26.00;54.40;;;;;;5117240;28;20277;-74
2022/08/23 03:34:30;;;;;;;;;;;26.10;54.50;;;;;;5116164;28;19923;-75
2022/08/23 03:36:56;;;;;;;;;;;26.10;54.50;;;;;;5117299;28;20285;-75
2022/08/23 03:39:22;;;;;;;;;;;26.10;54.50;;;;;;5117184;28;19955;-76
2022/08/23 03:41:47;;;;;;;;;;;26.10;54.40;;;;;;5117394;28;19912;-74
2022/08/23 03:44:13;;;;;;;;;;;26.10;54.40;;;;;;5117326;28;19912;-75
2022/08/23 03:46:39;;;;;;;;;;;26.10;54.50;;;;;;5115794;28;19998;-76
2022/08/23 03:49:04;;;;;;;;;;;26.10;54.50;;;;;;5116748;28;19911;-74
2022/08/23 03:51:31;;;;;;;;;;;26.10;54.50;;;;;;5117304;28;20265;-76
2022/08/23 03:53:57;;;;;;;;;;;26.20;54.60;;;;;;5117375;28;19912;-75
2022/08/23 03:56:28;;;;;;;;;;;26.10;54.50;;;;;;5116780;28;19908;-75
2022/08/23 03:58:54;;;;;;;;;;;26.10;54.50;;;;;;5115698;28;19968;-76
2022/08/23 04:01:19;;;;;;;;;;;26.20;54.60;;;;;;5116134;28;20366;-74
2022/08/23 04:03:46;;;;;;;;;;;26.20;54.50;;;;;;5115173;28;19908;-75
2022/08/23 04:06:12;;;;;;;;;;;26.20;54.50;;;;;;5116087;27;19912;-73
2022/08/23 04:08:37;;;;;;;;;;;26.20;54.50;;;;;;5116488;28;19953;-75
2022/08/23 04:11:03;;;;;;;;;;;26.20;54.40;;;;;;5116032;28;19916;-73
2022/08/23 04:13:29;;;;;;;;;;;26.20;54.30;;;;;;5115333;28;20014;-75
2022/08/23 04:15:55;;;;;;;;;;;26.30;54.40;;;;;;5115798;28;19947;-75
2022/08/23 04:18:21;;;;;;;;;;;26.20;54.30;;;;;;5116914;28;20389;-73
2022/08/23 04:20:47;;;;;;;;;;;26.20;54.10;;;;;;5116103;28;19962;-76
2022/08/23 04:23:13;;;;;;;;;;;26.30;54.20;;;;;;5116005;28;19908;-74
2022/08/23 04:25:38;;;;;;;;;;;26.30;54.10;;;;;;5114905;28;19961;-75
2022/08/23 04:28:04;;;;;;;;;;;26.30;54.00;;;;;;5116133;28;19964;-74
2022/08/23 04:30:31;;;;;;;;;;;26.30;54.00;;;;;;5114306;28;19920;-76
2022/08/23 04:32:56;;;;;;;;;;;26.30;53.90;;;;;;5116485;28;19926;-75
2022/08/23 04:35:24;;;;;;;;;;;26.40;53.90;;;;;;5115711;28;19919;-75
2022/08/23 04:37:50;;;;;;;;;;;26.30;53.70;;;;;;5115950;28;20274;-74
2022/08/23 04:42:59;;;;;;;;;;;26.40;53.80;;;;;;5112335;28;19915;-75
2022/08/23 04:45:26;;;;;;;;;;;26.40;53.70;;;;;;5114743;28;19908;-76
2022/08/23 04:47:51;;;;;;;;;;;26.40;53.80;;;;;;5114687;28;20029;-75
2022/08/23 04:50:17;;;;;;;;;;;26.40;53.80;;;;;;5114110;28;20360;-73
2022/08/23 04:52:43;;;;;;;;;;;26.50;53.80;;;;;;5114355;28;19911;-76
2022/08/23 04:55:09;;;;;;;;;;;26.50;53.70;;;;;;5114238;28;19956;-75
2022/08/23 04:57:35;;;;;;;;;;;26.50;53.70;;;;;;5112974;28;20336;-75
2022/08/23 05:00:01;;;;;;;;;;;26.50;53.70;;;;;;5114165;28;19920;-75
2022/08/23 05:02:26;;;;;;;;;;;26.70;53.90;;;;;;5114021;28;19912;-75
2022/08/23 05:04:52;;;;;;;;;;;26.50;53.70;;;;;;5115170;28;20010;-73
2022/08/23 05:07:18;;;;;;;;;;;26.50;53.60;;;;;;5115051;28;19912;-83
2022/08/23 05:09:44;;;;;;;;;;;26.60;53.70;;;;;;5113974;28;19923;-81
2022/08/23 05:12:10;;;;;;;;;;;26.60;53.60;;;;;;5113612;28;19908;-81
2022/08/23 05:14:35;;;;;;;;;;;26.60;53.50;;;;;;5114276;28;20269;-80
2022/08/23 05:17:01;;;;;;;;;;;26.60;53.60;;;;;;5114451;28;20353;-82
2022/08/23 05:19:27;;;;;;;;;;;26.70;53.60;;;;;;5113699;28;19912;-81
2022/08/23 05:21:52;;;;;;;;;;;26.60;53.40;;;;;;5112978;28;20002;-82
2022/08/23 05:24:18;;;;;;;;;;;26.70;53.50;;;;;;5113643;28;19909;-81
2022/08/23 05:26:44;;;;;;;;;;;26.70;53.40;;;;;;5113438;28;19908;-81
2022/08/23 05:29:09;;;;;;;;;;;26.70;53.30;;;;;;5114957;28;19907;-81
2022/08/23 05:31:35;;;;;;;;;;;26.70;53.50;;;;;;5118110;28;20292;-79
2022/08/23 05:34:00;;;;;;;;;;;26.70;53.30;;;;;;5114363;28;19915;-80
2022/08/23 05:36:31;;;;;;;;;;;26.70;53.30;;;;;;5116425;28;20002;-82
2022/08/23 05:38:57;;;;;;;;;;;26.80;53.80;;;;;;5117859;28;20362;-82
2022/08/23 05:41:23;;;;;;;;;;;26.80;53.20;;;;;;5116542;28;20369;-82
2022/08/23 05:43:49;;;;;;;;;;;26.80;53.00;;;;;;5117936;28;19914;-83
2022/08/23 05:46:16;;;;;;;;;;;26.80;53.10;;;;;;5116129;28;19961;-81
2022/08/23 05:48:45;;;;;;;;;;;26.80;53.20;;;;;;5114941;28;19908;-76
2022/08/23 05:51:12;;;;;;;;;;;26.80;53.10;;;;;;5114519;28;20368;-85
2022/08/23 05:53:38;;;;;;;;;;;26.80;53.00;;;;;;5114847;28;19908;-83
2022/08/23 05:56:07;;;;;;;;;;;26.80;53.00;;;;;;5114986;28;19919;-77
2022/08/23 05:58:33;;;;;;;;;;;26.90;53.10;;;;;;5114677;28;19919;-82
2022/08/23 06:00:58;;;;;;;;;;;26.90;53.00;;;;;;5114859;28;19912;-81
2022/08/23 06:03:24;;;;;;;;;;;26.90;53.60;;;;;;5114371;28;19907;-81
2022/08/23 06:05:55;;;;;;;;;;;26.90;52.80;;;;;;5114585;28;19915;-81
2022/08/23 06:08:20;;;;;;;;;;;26.90;52.60;;;;;;5115727;28;20000;-82
2022/08/23 06:10:46;;;;;;;;;;;27.00;52.80;;;;;;5113818;28;19908;-82
2022/08/23 06:13:14;;;;;;;;;;;27.00;52.70;;;;;;5114620;28;21517;-82
2022/08/23 06:15:43;;;;;;;;;;;27.00;52.70;;;;;;5115005;28;19916;-82
2022/08/23 06:18:09;;;;;;;;;;;27.00;52.70;;;;;;5114423;28;19915;-81
2022/08/23 06:20:35;;;;;;;;;;;27.10;52.60;;;;;;5114672;28;19912;-81
2022/08/23 06:23:01;;;;;;;;;;;27.00;52.60;;;;;;5114175;28;19909;-83
2022/08/23 06:25:27;;;;;;;;;;;27.00;52.40;;;;;;5114441;28;19908;-82
2022/08/23 06:27:53;;;;;;;;;;;27.00;52.40;;;;;;5114290;28;19911;-82
2022/08/23 06:30:18;;;;;;;;;;;27.00;52.60;;;;;;5116335;28;19916;-81
2022/08/23 06:32:44;;;;;;;;;;;27.00;52.60;;;;;;5117757;28;19915;-82
2022/08/23 06:35:10;;;;;;;;;;;27.10;53.10;;;;;;5113250;28;20296;-82
2022/08/23 06:37:35;;;;;;;;;;;27.00;52.30;;;;;;5115069;28;19923;-81
2022/08/23 06:40:02;;;;;;;;;;;27.00;52.20;;;;;;5114131;28;19916;-82
2022/08/23 06:42:28;;;;;;;;;;;27.00;52.40;;;;;;5114870;28;19926;-82
2022/08/23 06:44:53;;;;;;;;;;;27.00;52.20;;;;;;5113082;28;19912;-82
2022/08/23 06:47:19;;;;;;;;;;;27.00;52.20;;;;;;5114275;28;19908;-82
2022/08/23 06:49:44;;;;;;;;;;;27.00;52.10;;;;;;5116636;28;19908;-81
2022/08/23 06:52:11;;;;;;;;;;;27.00;52.20;;;;;;5118159;28;19911;-81
2022/08/23 06:54:38;;;;;;;;;;;27.00;52.10;;;;;;5117889;28;19914;-80
2022/08/23 06:57:03;;;;;;;;;;;26.90;52.20;;;;;;5116666;28;20014;-80
2022/08/23 06:59:30;;;;;;;;;;;26.90;51.90;;;;;;5117722;28;20011;-81
2022/08/23 07:01:59;;;;;;;;;;;26.90;52.00;;;;;;5117823;28;20404;-80
2022/08/23 07:04:30;;;;;;;;;;;26.90;52.00;;;;;;5116317;28;19908;-80
2022/08/23 07:06:56;;;;;;;;;;;26.90;52.00;;;;;;5116531;28;20354;-81
2022/08/23 07:09:22;;;;;;;;;;;26.90;51.80;;;;;;5117640;28;20006;-81
2022/08/23 07:11:47;;;;;;;;;;;26.80;51.80;;;;;;5118131;28;19953;-80
2022/08/23 07:14:15;;;;;;;;;;;26.50;51.50;;;;;;5117677;28;19916;-82
2022/08/23 07:16:43;;;;;;;;;;;26.80;51.60;;;;;;5117490;28;19941;-81
2022/08/23 07:19:09;;;;;;;;;;;26.90;51.70;;;;;;5117706;28;20010;-81
2022/08/23 07:21:35;;;;;;;;;;;26.90;51.70;;;;;;5117750;28;20349;-81
2022/08/23 07:24:01;;;;;;;;;;;26.90;51.70;;;;;;5117408;28;20277;-81
2022/08/23 07:26:27;;;;;;;;;;;26.90;51.40;;;;;;5116199;28;19908;-81
2022/08/23 07:28:52;;;;;;;;;;;26.90;51.10;;;;;;5116218;28;20085;-80
2022/08/23 07:31:29;;;;;;;;;;;26.90;51.30;;;;;;5117349;28;20410;-81
2022/08/23 07:33:56;;;;;;;;;;;26.90;51.40;;;;;;5115794;28;19908;-80
2022/08/23 07:36:23;;;;;;;;;;;26.90;51.30;;;;;;5117359;28;19912;-80
2022/08/23 07:38:48;;;;;;;;;;;26.90;51.20;;;;;;5117008;28;19919;-74
2022/08/23 07:41:15;;;;;;;;;;;26.90;50.60;;;;;;5117303;28;19912;-74
2022/08/23 07:43:40;;;;;;;;;;;26.90;51.20;;;;;;5117300;28;19958;-76
2022/08/23 07:46:07;;;;;;;;;;;26.90;51.20;;;;;;5116084;28;19908;-75
2022/08/23 07:48:33;;;;;;;;;;;26.90;51.10;;;;;;5115704;28;19961;-75
2022/08/23 07:51:00;;;;;;;;;;;27.00;50.80;;;;;;5116824;28;19914;-74
2022/08/23 07:53:25;;;;;;;;;;;26.90;51.10;;;;;;5117288;28;19986;-76
2022/08/23 07:55:52;;;;;;;;;;;27.00;51.00;;;;;;5116877;28;19908;-75
2022/08/23 07:58:18;;;;;;;;;;;27.00;50.70;;;;;;5116721;28;20369;-74
2022/08/23 08:00:43;;;;;;;;;;;27.00;51.10;;;;;;5114340;28;19916;-75
2022/08/23 08:03:10;;;;;;;;;;;27.00;50.80;;;;;;5116340;28;20354;-74
2022/08/23 08:05:36;;;;;;;;;;;27.10;50.70;;;;;;5116616;28;19937;-75
2022/08/23 08:08:02;;;;;;;;;;;27.10;50.60;;;;;;5116708;28;19914;-75
2022/08/23 08:10:27;;;;;;;;;;;27.10;50.60;;;;;;5116429;28;20308;-75
2022/08/23 08:12:53;;;;;;;;;;;27.10;50.50;;;;;;5115058;28;19919;-75
2022/08/23 08:15:19;;;;;;;;;;;27.10;50.40;;;;;;5116169;28;19953;-74
2022/08/23 08:17:51;;;;;;;;;;;27.10;50.30;;;;;;5116794;28;19935;-73
2022/08/23 08:20:18;;;;;;;;;;;27.20;50.10;;;;;;5116427;28;19923;-73
2022/08/23 08:22:44;;;;;;;;;;;27.20;50.00;;;;;;5116247;28;19911;-74
2022/08/23 08:25:10;;;;;;;;;;;27.20;49.80;;;;;;5115184;28;19998;-74
2022/08/23 08:27:36;;;;;;;;;;;27.20;49.80;;;;;;5116156;28;20336;-73
2022/08/23 08:30:06;;;;;;;;;;;27.20;49.80;;;;;;5116102;28;19943;-74
2022/08/23 08:32:32;;;;;;;;;;;27.20;49.50;;;;;;5116438;28;20281;-75
2022/08/23 08:34:57;;;;;;;;;;;27.20;49.40;;;;;;5116157;28;19933;-75
2022/08/23 08:37:23;;;;;;;;;;;27.20;49.40;;;;;;5115998;28;19916;-74
2022/08/23 08:39:48;;;;;;;;;;;27.30;49.40;;;;;;5115800;28;19916;-75
2022/08/23 08:42:21;;;;;;;;;;;27.30;49.20;;;;;;5115812;28;19962;-73
2022/08/23 08:44:46;;;;;;;;;;;27.30;49.30;;;;;;5115780;28;19907;-74
2022/08/23 08:47:41;;;;;;;;;;;27.30;49.30;;;;;;5115794;28;20267;-74
2022/08/23 08:50:11;;;;;;;;;;;27.30;48.60;;;;;;5106522;28;19908;-74
2022/08/23 08:52:42;;;;;;;;;;;27.30;49.10;;;;;;5115708;28;20040;-74
2022/08/23 08:55:18;;;;;;;;;;;27.30;49.00;;;;;;5115691;28;19923;-74
2022/08/23 08:57:44;;;;;;;;;;;27.30;49.00;;;;;;5115991;28;20330;-74
2022/08/23 09:00:14;;;;;;;;;;;27.30;49.10;;;;;;5115361;28;19916;-75
2022/08/23 09:02:40;;;;;;;;;;;27.30;49.00;;;;;;5115674;28;19908;-75
2022/08/23 09:05:11;;;;;;;;;;;27.40;49.00;;;;;;5114309;28;19908;-75
2022/08/23 09:07:37;;;;;;;;;;;27.40;49.30;;;;;;5115876;28;19992;-75
2022/08/23 09:10:06;;;;;;;;;;;27.40;49.20;;;;;;5115077;28;20350;-74
2022/08/23 09:12:31;;;;;;;;;;;27.40;48.90;;;;;;5113756;28;19908;-74
2022/08/23 09:15:14;;;;;;;;;;;27.40;49.00;;;;;;5115677;28;19922;-75
2022/08/23 09:17:42;;;;;;;;;;;27.40;48.80;;;;;;5115223;28;19920;-75
2022/08/23 09:20:09;;;;;;;;;;;27.40;48.50;;;;;;5114865;28;19912;-75
2022/08/23 09:22:44;;;;;;;;;;;27.50;48.70;;;;;;5115793;28;19939;-75
2022/08/23 09:25:11;;;;;;;;;;;27.50;48.80;;;;;;5113951;28;19907;-74
2022/08/23 09:27:37;;;;;;;;;;;27.50;48.80;;;;;;5115013;28;19908;-75
2022/08/23 09:30:04;;;;;;;;;;;27.50;48.70;;;;;;5114058;28;19908;-74
2022/08/23 09:32:29;;;;;;;;;;;27.50;48.60;;;;;;5113556;28;19926;-74
2022/08/23 09:35:10;;;;;;;;;;;27.50;48.50;;;;;;5113604;28;19919;-75
2022/08/23 09:37:55;;;;;;;;;;;27.50;48.50;;;;;;5114272;28;20266;-75
2022/08/23 09:40:24;;;;;;;;;;;27.60;48.30;;;;;;5114984;28;19916;-75
2022/08/23 09:43:13;;;;;;;;;;;27.60;48.60;;;;;;5114867;28;19908;-75
2022/08/23 09:45:53;;;;;;;;;;;27.60;48.60;;;;;;5109172;28;19908;-74
2022/08/23 09:48:39;;;;;;;;;;;27.60;48.70;;;;;;5115287;28;19914;-75
2022/08/23 09:51:23;;;;;;;;;;;27.60;48.70;;;;;;5113345;28;20281;-74
2022/08/23 09:54:10;;;;;;;;;;;27.60;48.50;;;;;;5114659;28;19908;-75
2022/08/23 09:56:50;;;;;;;;;;;27.60;48.60;;;;;;5113386;28;20383;-75
2022/08/23 09:59:21;;;;;;;;;;;27.70;48.80;;;;;;5114401;28;19911;-75
2022/08/23 10:01:47;;;;;;;;;;;27.70;49.10;;;;;;5113346;28;19996;-75
2022/08/23 10:04:15;;;;;;;;;;;27.70;48.70;;;;;;5113032;28;19908;-75
2022/08/23 10:06:42;;;;;;;;;;;27.70;48.50;;;;;;5113664;28;19912;-75
2022/08/23 10:09:20;;;;;;;;;;;27.70;48.20;;;;;;5114027;28;19907;-75
2022/08/23 10:11:46;;;;;;;;;;;27.70;48.40;;;;;;5115395;28;20254;-74
2022/08/23 10:14:13;;;;;;;;;;;27.80;48.40;;;;;;5113306;28;19912;-75
2022/08/23 10:16:56;;;;;;;;;;;27.80;48.20;;;;;;5114402;28;19926;-75
2022/08/23 10:19:22;;;;;;;;;;;27.80;48.10;;;;;;5113150;28;20005;-75
2022/08/23 10:21:50;;;;;;;;;;;27.80;48.20;;;;;;5114339;28;19921;-75
2022/08/23 10:24:22;;;;;;;;;;;27.80;48.00;;;;;;5115958;28;19908;-74
2022/08/23 10:26:51;;;;;;;;;;;27.80;48.00;;;;;;5118530;28;19947;-74
2022/08/23 10:32:20;;;;;;;;;;;27.80;47.30;;;;;;5118590;28;19961;-75
2022/08/23 10:34:48;;;;;;;;;;;27.90;47.70;;;;;;5117357;28;19995;-75
2022/08/23 10:37:23;;;;;;;;;;;27.90;47.60;;;;;;5118910;28;20370;-75
2022/08/23 10:39:57;;;;;;;;;;;27.90;47.20;;;;;;5118956;28;19912;-75
2022/08/23 10:42:35;;;;;;;;;;;27.90;47.50;;;;;;5116882;28;19920;-76
2022/08/23 10:45:14;;;;;;;;;;;28.00;47.50;;;;;;5118418;28;19914;-75
2022/08/23 10:47:57;;;;;;;;;;;28.00;47.20;;;;;;5117167;28;19914;-74
2022/08/23 10:50:24;;;;;;;;;;;28.00;47.30;;;;;;5116824;28;20006;-75
2022/08/23 10:52:50;;;;;;;;;;;28.00;47.20;;;;;;5116949;28;19996;-75
2022/08/23 10:55:34;;;;;;;;;;;28.10;47.20;;;;;;5117972;28;19951;-75
2022/08/23 10:58:01;;;;;;;;;;;28.10;46.70;;;;;;5117898;28;19908;-75
2022/08/23 11:00:28;;;;;;;;;;;28.10;47.10;;;;;;5117507;28;19947;-76
2022/08/23 11:03:12;;;;;;;;;;;28.10;47.20;;;;;;5116736;28;19914;-75
2022/08/23 11:05:38;;;;;;;;;;;28.10;47.10;;;;;;5117909;28;19915;-75
2022/08/23 11:08:05;;;;;;;;;;;28.10;46.70;;;;;;5116728;28;19911;-74
2022/08/23 11:10:31;;;;;;;;;;;28.10;46.60;;;;;;5117570;28;19942;-76
2022/08/23 11:13:04;;;;;;;;;;;28.20;46.70;;;;;;5116769;28;20342;-75
2022/08/23 11:15:30;;;;;;;;;;;28.20;46.80;;;;;;5116482;28;19914;-74
2022/08/23 11:17:57;;;;;;;;;;;28.20;46.70;;;;;;5117348;28;19919;-74
2022/08/23 11:20:58;;;;;;;;;;;28.20;46.40;;;;;;5117949;28;19941;-74
2022/08/23 11:23:42;;;;;;;;;;;28.20;46.40;;;;;;5074739;28;19913;-74
2022/08/23 11:26:09;;;;;;;;;;;28.20;46.60;;;;;;5114013;28;19908;-74
2022/08/23 11:28:45;;;;;;;;;;;28.30;46.50;;;;;;5117257;28;19907;-74
2022/08/23 11:31:11;;;;;;;;;;;28.30;46.50;;;;;;5116281;28;19923;-75
2022/08/23 11:33:48;;;;;;;;;;;28.30;46.50;;;;;;5117318;28;20302;-74
2022/08/23 11:36:20;;;;;;;;;;;28.30;46.40;;;;;;5117397;28;20377;-75
2022/08/23 11:38:45;;;;;;;;;;;28.30;46.00;;;;;;5116711;28;19915;-74
2022/08/23 11:41:29;;;;;;;;;;;28.30;46.40;;;;;;5116901;28;19919;-75
2022/08/23 11:43:55;;;;;;;;;;;28.40;46.20;;;;;;5116914;28;19907;-75
2022/08/23 11:46:27;;;;;;;;;;;28.30;46.40;;;;;;5116888;28;20380;-75
2022/08/23 11:49:09;;;;;;;;;;;28.40;46.40;;;;;;5117106;28;19961;-74
2022/08/23 11:51:57;;;;;;;;;;;28.40;46.30;;;;;;5117069;28;19912;-75
2022/08/23 11:54:38;;;;;;;;;;;28.40;46.50;;;;;;5111155;28;19908;-74
2022/08/23 11:57:13;;;;;;;;;;;28.40;46.30;;;;;;5115789;28;19912;-75
2022/08/23 11:59:58;;;;;;;;;;;28.40;46.40;;;;;;5117017;28;20006;-74
2022/08/23 12:02:32;;;;;;;;;;;28.40;46.30;;;;;;5116613;28;20057;-75
2022/08/23 12:05:00;;;;;;;;;;;28.50;45.60;;;;;;5115347;28;19911;-74
2022/08/23 12:08:04;;;;;;;;;;;28.50;46.20;;;;;;5117052;28;19915;-74
2022/08/23 12:10:39;;;;;;;;;;;28.50;46.10;;;;;;5074054;28;20004;-74
2022/08/23 12:13:16;;;;;;;;;;;28.50;46.20;;;;;;5073533;28;19912;-74
2022/08/23 12:16:00;;;;;;;;;;;28.50;46.00;;;;;;5099276;28;19908;-73
2022/08/23 12:18:26;;;;;;;;;;;28.50;46.00;;;;;;5116715;28;19912;-75
2022/08/23 12:20:56;;;;;;;;;;;28.60;46.20;;;;;;5116257;28;20281;-75
2022/08/23 12:23:21;;;;;;;;;;;28.60;46.20;;;;;;5115096;28;19915;-75
2022/08/23 12:25:57;;;;;;;;;;;28.70;45.80;;;;;;5115107;28;19908;-75
2022/08/23 12:28:23;;;;;;;;;;;28.70;46.00;;;;;;5116229;28;19907;-75
2022/08/23 12:30:49;;;;;;;;;;;28.70;45.90;;;;;;5114724;28;20010;-75
2022/08/23 12:33:27;;;;;;;;;;;28.80;46.00;;;;;;5116203;28;19955;-73
2022/08/23 12:36:17;;;;;;;;;;;28.80;45.80;;;;;;5115734;28;19915;-74
2022/08/23 12:38:49;;;;;;;;;;;28.80;45.70;;;;;;5114689;28;19916;-74
2022/08/23 12:41:19;;;;;;;;;;;28.90;45.70;;;;;;5115596;28;20386;-75
2022/08/23 12:43:57;;;;;;;;;;;28.90;45.70;;;;;;5115942;28;19915;-74
2022/08/23 12:46:36;;;;;;;;;;;28.90;45.60;;;;;;5115140;28;19960;-74
2022/08/23 12:49:04;;;;;;;;;;;29.00;45.80;;;;;;5115593;28;19915;-75
2022/08/23 12:51:30;;;;;;;;;;;29.00;45.30;;;;;;5114509;28;19915;-74
2022/08/23 12:53:55;;;;;;;;;;;29.10;45.50;;;;;;5115836;28;19908;-75
2022/08/23 12:56:26;;;;;;;;;;;29.10;45.40;;;;;;5114458;28;19908;-74
2022/08/23 12:58:54;;;;;;;;;;;29.20;45.40;;;;;;5115265;28;19934;-75
2022/08/23 13:01:27;;;;;;;;;;;29.20;45.00;;;;;;5115917;28;19912;-73
2022/08/23 13:04:00;;;;;;;;;;;29.40;45.20;;;;;;5114762;28;19957;-75
2022/08/23 13:06:33;;;;;;;;;;;29.40;45.10;;;;;;5114376;28;20325;-74
2022/08/23 13:09:21;;;;;;;;;;;29.50;45.00;;;;;;5115567;28;19908;-75
2022/08/23 13:11:48;;;;;;;;;;;29.50;44.90;;;;;;5109756;28;19908;-74
2022/08/23 13:14:24;;;;;;;;;;;29.60;44.70;;;;;;5115763;28;19962;-75
2022/08/23 13:16:50;;;;;;;;;;;29.70;44.80;;;;;;5115248;28;19955;-75
2022/08/23 13:19:17;;;;;;;;;;;29.80;44.70;;;;;;5114074;28;19952;-75
2022/08/23 13:21:43;;;;;;;;;;;29.90;44.40;;;;;;5115053;28;19912;-75
2022/08/23 13:24:32;;;;;;;;;;;30.00;44.60;;;;;;5115224;28;19915;-74
2022/08/23 13:27:15;;;;;;;;;;;30.10;44.40;;;;;;5115146;28;19915;-74
2022/08/23 13:30:06;;;;;;;;;;;30.30;44.50;;;;;;5113677;28;19907;-74
2022/08/23 13:32:41;;;;;;;;;;;30.60;44.40;;;;;;5097826;28;19914;-74
2022/08/23 13:35:22;;;;;;;;;;;31.00;44.00;;;;;;5114793;28;20388;-74
2022/08/23 13:37:48;;;;;;;;;;;31.40;43.70;;;;;;5114839;28;20011;-74
2022/08/23 13:40:24;;;;;;;;;;;31.80;44.40;;;;;;5114067;28;20030;-74
2022/08/23 13:42:51;;;;;;;;;;;32.20;43.70;;;;;;5114729;28;19919;-74
2022/08/23 13:45:22;;;;;;;;;;;32.60;43.20;;;;;;5114894;28;19915;-75
2022/08/23 13:47:49;;;;;;;;;;;33.00;43.70;;;;;;5113662;28;19915;-74
2022/08/23 13:50:22;;;;;;;;;;;33.50;43.80;;;;;;5114711;28;20010;-74
2022/08/23 13:52:47;;;;;;;;;;;33.80;43.70;;;;;;5113572;28;19908;-75
2022/08/23 13:55:13;;;;;;;;;;;34.10;43.50;;;;;;5114950;28;19938;-75
2022/08/23 13:57:39;;;;;;;;;;;34.50;42.70;;;;;;5113885;28;19908;-75
2022/08/23 14:00:09;;;;;;;;;;;34.80;42.20;;;;;;5115185;28;20350;-75
2022/08/23 14:02:35;;;;;;;;;;;35.00;42.90;;;;;;5113981;28;20261;-74
2022/08/23 14:05:00;;;;;;;;;;;35.20;41.10;;;;;;5114441;28;19953;-76
2022/08/23 14:07:26;;;;;;;;;;;35.30;42.00;;;;;;5114621;28;19911;-75
2022/08/23 14:09:52;;;;;;;;;;;35.30;42.60;;;;;;5114377;28;20266;-74
2022/08/23 14:12:20;;;;;;;;;;;35.40;41.90;;;;;;5114578;28;20018;-75
2022/08/23 14:14:46;;;;;;;;;;;35.40;42.40;;;;;;5114655;28;20265;-74
2022/08/23 14:17:11;;;;;;;;;;;35.50;41.80;;;;;;5114180;28;19920;-74
2022/08/23 14:19:37;;;;;;;;;;;35.60;41.40;;;;;;5114221;28;19911;-75
2022/08/23 14:22:03;;;;;;;;;;;35.70;41.30;;;;;;5114437;28;20067;-74
2022/08/23 14:24:29;;;;;;;;;;;35.90;41.20;;;;;;5114731;28;20002;-76
2022/08/23 14:26:55;;;;;;;;;;;36.20;40.80;;;;;;5114448;28;19991;-73
2022/08/23 14:29:21;;;;;;;;;;;36.40;40.90;;;;;;5112981;28;20368;-75
2022/08/23 14:31:47;;;;;;;;;;;36.60;39.90;;;;;;5114254;28;19955;-75
2022/08/23 14:34:12;;;;;;;;;;;36.80;39.70;;;;;;5112804;28;19955;-75
2022/08/23 14:36:38;;;;;;;;;;;37.10;40.50;;;;;;5114184;28;19911;-74